sensor_id;sensor_type;location;lat;lon;timestamp;P1;durP1;ratioP1;P2;durP2;ratioP2
11263;SDS011;5689;48.798;9.070;2022-08-07T00:00:49;0.10;;;0.10;;
11263;SDS011;5689;48.798;9.070;2022-08-07T00:03:18;0.20;;;0.20;;
11263;SDS011;5689;48.798;9.070;2022-08-07T00:05:46;0.20;;;0.20;;
11263;SDS011;5689;48.798;9.070;2022-08-07T00:08:16;0.22;;;0.22;;
11263;SDS011;5689;48.798;9.070;2022-08-07T00:10:44;0.20;;;0.20;;
11263;SDS011;5689;48.798;9.070;2022-08-07T00:13:12;0.20;;;0.20;;
11263;SDS011;5689;48.798;9.070;2022-08-07T00:15:41;0.30;;;0.30;;
11263;SDS011;5689;48.798;9.070;2022-08-07T00:18:10;0.20;;;0.20;;
11263;SDS011;5689;48.798;9.070;2022-08-07T00:20:39;0.20;;;0.20;;
11263;SDS011;5689;48.798;9.070;2022-08-07T00:23:08;0.30;;;0.30;;
11263;SDS011;5689;48.798;9.070;2022-08-07T00:25:36;0.20;;;0.20;;
11263;SDS011;5689;48.798;9.070;2022-08-07T00:28:05;0.30;;;0.30;;
11263;SDS011;5689;48.798;9.070;2022-08-07T00:30:33;0.30;;;0.30;;
11263;SDS011;5689;48.798;9.070;2022-08-07T00:33:01;0.30;;;0.30;;
11263;SDS011;5689;48.798;9.070;2022-08-07T00:35:31;0.20;;;0.20;;
11263;SDS011;5689;48.798;9.070;2022-08-07T00:37:59;0.20;;;0.20;;
11263;SDS011;5689;48.798;9.070;2022-08-07T00:40:28;0.30;;;0.30;;
11263;SDS011;5689;48.798;9.070;2022-08-07T00:43:00;0.30;;;0.30;;
11263;SDS011;5689;48.798;9.070;2022-08-07T00:45:30;0.20;;;0.20;;
11263;SDS011;5689;48.798;9.070;2022-08-07T00:47:58;0.20;;;0.20;;
11263;SDS011;5689;48.798;9.070;2022-08-07T00:50:26;0.20;;;0.20;;
11263;SDS011;5689;48.798;9.070;2022-08-07T00:52:55;0.20;;;0.20;;
11263;SDS011;5689;48.798;9.070;2022-08-07T00:55:23;0.10;;;0.10;;
11263;SDS011;5689;48.798;9.070;2022-08-07T00:57:51;0.25;;;0.25;;
11263;SDS011;5689;48.798;9.070;2022-08-07T01:00:21;0.30;;;0.30;;
11263;SDS011;5689;48.798;9.070;2022-08-07T01:02:49;0.40;;;0.40;;
11263;SDS011;5689;48.798;9.070;2022-08-07T01:05:18;0.40;;;0.40;;
11263;SDS011;5689;48.798;9.070;2022-08-07T01:07:47;0.50;;;0.50;;
11263;SDS011;5689;48.798;9.070;2022-08-07T01:10:17;0.60;;;0.60;;
11263;SDS011;5689;48.798;9.070;2022-08-07T01:12:46;0.50;;;0.50;;
11263;SDS011;5689;48.798;9.070;2022-08-07T01:15:15;0.63;;;0.63;;
11263;SDS011;5689;48.798;9.070;2022-08-07T01:17:44;0.70;;;0.70;;
11263;SDS011;5689;48.798;9.070;2022-08-07T01:20:12;0.85;;;0.85;;
11263;SDS011;5689;48.798;9.070;2022-08-07T01:22:43;0.77;;;0.77;;
11263;SDS011;5689;48.798;9.070;2022-08-07T01:25:11;0.60;;;0.60;;
11263;SDS011;5689;48.798;9.070;2022-08-07T01:27:40;0.60;;;0.60;;
11263;SDS011;5689;48.798;9.070;2022-08-07T01:30:08;0.60;;;0.60;;
11263;SDS011;5689;48.798;9.070;2022-08-07T01:32:37;0.70;;;0.70;;
11263;SDS011;5689;48.798;9.070;2022-08-07T01:35:06;0.77;;;0.77;;
11263;SDS011;5689;48.798;9.070;2022-08-07T01:37:36;0.75;;;0.75;;
11263;SDS011;5689;48.798;9.070;2022-08-07T01:40:06;0.75;;;0.75;;
11263;SDS011;5689;48.798;9.070;2022-08-07T01:42:36;0.95;;;0.95;;
11263;SDS011;5689;48.798;9.070;2022-08-07T01:45:08;1.03;;;1.03;;
11263;SDS011;5689;48.798;9.070;2022-08-07T01:47:37;0.88;;;0.88;;
11263;SDS011;5689;48.798;9.070;2022-08-07T01:50:07;0.68;;;0.68;;
11263;SDS011;5689;48.798;9.070;2022-08-07T01:52:36;0.67;;;0.67;;
11263;SDS011;5689;48.798;9.070;2022-08-07T01:55:08;0.60;;;0.60;;
11263;SDS011;5689;48.798;9.070;2022-08-07T01:57:38;0.70;;;0.70;;
11263;SDS011;5689;48.798;9.070;2022-08-07T02:00:09;0.67;;;0.67;;
11263;SDS011;5689;48.798;9.070;2022-08-07T02:02:44;0.63;;;0.63;;
11263;SDS011;5689;48.798;9.070;2022-08-07T02:05:20;0.70;;;0.70;;
11263;SDS011;5689;48.798;9.070;2022-08-07T02:07:52;0.73;;;0.73;;
11263;SDS011;5689;48.798;9.070;2022-08-07T02:10:31;0.60;;;0.60;;
11263;SDS011;5689;48.798;9.070;2022-08-07T02:13:04;0.82;;;0.82;;
11263;SDS011;5689;48.798;9.070;2022-08-07T02:15:44;0.90;;;0.90;;
11263;SDS011;5689;48.798;9.070;2022-08-07T02:18:13;0.68;;;0.68;;
11263;SDS011;5689;48.798;9.070;2022-08-07T02:20:43;0.73;;;0.73;;
11263;SDS011;5689;48.798;9.070;2022-08-07T02:23:13;0.63;;;0.63;;
11263;SDS011;5689;48.798;9.070;2022-08-07T02:25:44;0.65;;;0.65;;
11263;SDS011;5689;48.798;9.070;2022-08-07T02:28:14;0.60;;;0.60;;
11263;SDS011;5689;48.798;9.070;2022-08-07T02:30:44;0.67;;;0.67;;
11263;SDS011;5689;48.798;9.070;2022-08-07T02:33:16;0.73;;;0.73;;
11263;SDS011;5689;48.798;9.070;2022-08-07T02:35:46;0.70;;;0.70;;
11263;SDS011;5689;48.798;9.070;2022-08-07T02:38:16;0.68;;;0.68;;
11263;SDS011;5689;48.798;9.070;2022-08-07T02:40:47;0.70;;;0.70;;
11263;SDS011;5689;48.798;9.070;2022-08-07T02:43:19;0.57;;;0.57;;
11263;SDS011;5689;48.798;9.070;2022-08-07T02:45:47;0.60;;;0.60;;
11263;SDS011;5689;48.798;9.070;2022-08-07T02:48:16;0.63;;;0.63;;
11263;SDS011;5689;48.798;9.070;2022-08-07T02:50:46;0.60;;;0.60;;
11263;SDS011;5689;48.798;9.070;2022-08-07T02:53:19;0.80;;;0.80;;
11263;SDS011;5689;48.798;9.070;2022-08-07T02:55:51;0.60;;;0.60;;
11263;SDS011;5689;48.798;9.070;2022-08-07T02:58:22;0.60;;;0.60;;
11263;SDS011;5689;48.798;9.070;2022-08-07T03:00:53;0.90;;;0.90;;
11263;SDS011;5689;48.798;9.070;2022-08-07T03:03:24;1.80;;;1.80;;
11263;SDS011;5689;48.798;9.070;2022-08-07T03:05:54;2.10;;;2.00;;
11263;SDS011;5689;48.798;9.070;2022-08-07T03:08:23;1.73;;;1.73;;
11263;SDS011;5689;48.798;9.070;2022-08-07T03:10:54;1.93;;;1.87;;
11263;SDS011;5689;48.798;9.070;2022-08-07T03:13:29;7.00;;;6.70;;
11263;SDS011;5689;48.798;9.070;2022-08-07T03:15:58;6.57;;;6.28;;
11263;SDS011;5689;48.798;9.070;2022-08-07T03:18:29;5.63;;;5.43;;
11263;SDS011;5689;48.798;9.070;2022-08-07T03:20:57;4.63;;;4.43;;
11263;SDS011;5689;48.798;9.070;2022-08-07T03:23:26;4.30;;;4.10;;
11263;SDS011;5689;48.798;9.070;2022-08-07T03:25:57;6.20;;;5.97;;
11263;SDS011;5689;48.798;9.070;2022-08-07T03:28:31;12.90;;;12.40;;
11263;SDS011;5689;48.798;9.070;2022-08-07T03:31:02;12.40;;;11.90;;
11263;SDS011;5689;48.798;9.070;2022-08-07T03:33:52;5.05;;;4.85;;
11263;SDS011;5689;48.798;9.070;2022-08-07T03:36:23;15.20;;;14.60;;
11263;SDS011;5689;48.798;9.070;2022-08-07T03:38:54;16.87;;;16.17;;
11263;SDS011;5689;48.798;9.070;2022-08-07T03:41:26;44.33;;;42.43;;
11263;SDS011;5689;48.798;9.070;2022-08-07T03:43:56;30.93;;;29.60;;
11263;SDS011;5689;48.798;9.070;2022-08-07T03:46:28;40.83;;;39.07;;
11263;SDS011;5689;48.798;9.070;2022-08-07T03:48:58;57.15;;;54.72;;
11263;SDS011;5689;48.798;9.070;2022-08-07T03:51:32;83.70;;;80.20;;
11263;SDS011;5689;48.798;9.070;2022-08-07T03:54:01;63.93;;;61.23;;
11263;SDS011;5689;48.798;9.070;2022-08-07T03:56:31;76.20;;;73.00;;
11263;SDS011;5689;48.798;9.070;2022-08-07T03:59:03;69.67;;;66.77;;
11263;SDS011;5689;48.798;9.070;2022-08-07T04:01:33;77.30;;;74.10;;
11263;SDS011;5689;48.798;9.070;2022-08-07T04:04:06;88.37;;;84.70;;
11263;SDS011;5689;48.798;9.070;2022-08-07T04:06:35;86.03;;;82.43;;
11263;SDS011;5689;48.798;9.070;2022-08-07T04:09:12;88.80;;;85.07;;
11263;SDS011;5689;48.798;9.070;2022-08-07T04:11:44;98.93;;;94.83;;
11263;SDS011;5689;48.798;9.070;2022-08-07T04:14:13;109.63;;;105.07;;
11263;SDS011;5689;48.798;9.070;2022-08-07T04:16:42;131.77;;;126.17;;
11263;SDS011;5689;48.798;9.070;2022-08-07T04:19:10;128.03;;;122.53;;
11263;SDS011;5689;48.798;9.070;2022-08-07T04:21:39;109.27;;;104.67;;
11263;SDS011;5689;48.798;9.070;2022-08-07T04:24:08;109.60;;;104.97;;
11263;SDS011;5689;48.798;9.070;2022-08-07T04:26:38;92.70;;;88.80;;
11263;SDS011;5689;48.798;9.070;2022-08-07T04:29:08;74.87;;;71.73;;
11263;SDS011;5689;48.798;9.070;2022-08-07T04:31:36;77.90;;;74.67;;
11263;SDS011;5689;48.798;9.070;2022-08-07T04:34:06;60.60;;;58.10;;
11263;SDS011;5689;48.798;9.070;2022-08-07T04:36:35;65.67;;;62.90;;
11263;SDS011;5689;48.798;9.070;2022-08-07T04:39:04;49.70;;;47.60;;
11263;SDS011;5689;48.798;9.070;2022-08-07T04:41:32;39.23;;;37.57;;
11263;SDS011;5689;48.798;9.070;2022-08-07T04:44:00;31.00;;;29.67;;
11263;SDS011;5689;48.798;9.070;2022-08-07T04:46:37;16.63;;;15.93;;
11263;SDS011;5689;48.798;9.070;2022-08-07T04:49:13;26.93;;;25.77;;
11263;SDS011;5689;48.798;9.070;2022-08-07T04:51:50;21.77;;;20.83;;
11263;SDS011;5689;48.798;9.070;2022-08-07T04:54:25;33.33;;;31.90;;
11263;SDS011;5689;48.798;9.070;2022-08-07T04:57:01;25.67;;;24.57;;
11263;SDS011;5689;48.798;9.070;2022-08-07T04:59:36;19.70;;;18.87;;
11263;SDS011;5689;48.798;9.070;2022-08-07T05:02:12;12.00;;;11.50;;
11263;SDS011;5689;48.798;9.070;2022-08-07T05:04:45;4.18;;;3.97;;
11263;SDS011;5689;48.798;9.070;2022-08-07T05:07:20;3.10;;;3.00;;
11263;SDS011;5689;48.798;9.070;2022-08-07T05:09:55;1.13;;;1.13;;
11263;SDS011;5689;48.798;9.070;2022-08-07T05:12:34;0.38;;;0.38;;
11263;SDS011;5689;48.798;9.070;2022-08-07T05:15:06;0.28;;;0.28;;
11263;SDS011;5689;48.798;9.070;2022-08-07T05:17:45;0.20;;;0.20;;
11263;SDS011;5689;48.798;9.070;2022-08-07T05:20:17;0.30;;;0.30;;
11263;SDS011;5689;48.798;9.070;2022-08-07T05:22:52;0.30;;;0.30;;
11263;SDS011;5689;48.798;9.070;2022-08-07T05:25:24;0.30;;;0.30;;
11263;SDS011;5689;48.798;9.070;2022-08-07T05:27:54;0.28;;;0.28;;
11263;SDS011;5689;48.798;9.070;2022-08-07T05:30:23;0.38;;;0.38;;
11263;SDS011;5689;48.798;9.070;2022-08-07T05:32:54;0.40;;;0.40;;
11263;SDS011;5689;48.798;9.070;2022-08-07T05:35:24;0.43;;;0.43;;
11263;SDS011;5689;48.798;9.070;2022-08-07T05:37:52;0.45;;;0.45;;
11263;SDS011;5689;48.798;9.070;2022-08-07T05:40:21;0.15;;;0.15;;
11263;SDS011;5689;48.798;9.070;2022-08-07T05:42:49;0.10;;;0.10;;
11263;SDS011;5689;48.798;9.070;2022-08-07T05:45:18;0.00;;;0.00;;
11263;SDS011;5689;48.798;9.070;2022-08-07T05:47:48;0.00;;;0.00;;
11263;SDS011;5689;48.798;9.070;2022-08-07T05:50:18;0.10;;;0.10;;
11263;SDS011;5689;48.798;9.070;2022-08-07T05:52:46;0.00;;;0.00;;
11263;SDS011;5689;48.798;9.070;2022-08-07T05:55:15;0.00;;;0.00;;
11263;SDS011;5689;48.798;9.070;2022-08-07T05:57:44;0.05;;;0.05;;
11263;SDS011;5689;48.798;9.070;2022-08-07T06:00:14;0.00;;;0.00;;
11263;SDS011;5689;48.798;9.070;2022-08-07T06:02:51;0.00;;;0.00;;
11263;SDS011;5689;48.798;9.070;2022-08-07T06:05:23;0.00;;;0.00;;
11263;SDS011;5689;48.798;9.070;2022-08-07T06:07:58;0.30;;;0.10;;
11263;SDS011;5689;48.798;9.070;2022-08-07T06:10:28;0.10;;;0.10;;
11263;SDS011;5689;48.798;9.070;2022-08-07T06:12:57;0.00;;;0.00;;
11263;SDS011;5689;48.798;9.070;2022-08-07T06:15:26;0.00;;;0.00;;
11263;SDS011;5689;48.798;9.070;2022-08-07T06:17:56;0.00;;;0.00;;
11263;SDS011;5689;48.798;9.070;2022-08-07T06:20:26;0.00;;;0.00;;
11263;SDS011;5689;48.798;9.070;2022-08-07T06:22:56;0.00;;;0.00;;
11263;SDS011;5689;48.798;9.070;2022-08-07T06:25:32;0.10;;;0.10;;
11263;SDS011;5689;48.798;9.070;2022-08-07T06:28:02;0.00;;;0.00;;
11263;SDS011;5689;48.798;9.070;2022-08-07T06:30:31;0.00;;;0.00;;
11263;SDS011;5689;48.798;9.070;2022-08-07T06:33:00;0.00;;;0.00;;
11263;SDS011;5689;48.798;9.070;2022-08-07T06:35:30;0.00;;;0.00;;
11263;SDS011;5689;48.798;9.070;2022-08-07T06:38:01;0.00;;;0.00;;
11263;SDS011;5689;48.798;9.070;2022-08-07T06:40:29;0.00;;;0.00;;
11263;SDS011;5689;48.798;9.070;2022-08-07T06:43:03;0.00;;;0.00;;
11263;SDS011;5689;48.798;9.070;2022-08-07T06:45:50;0.00;;;0.00;;
11263;SDS011;5689;48.798;9.070;2022-08-07T06:48:20;0.00;;;0.00;;
11263;SDS011;5689;48.798;9.070;2022-08-07T06:50:50;0.00;;;0.00;;
11263;SDS011;5689;48.798;9.070;2022-08-07T06:53:19;0.00;;;0.00;;
11263;SDS011;5689;48.798;9.070;2022-08-07T06:55:49;0.00;;;0.00;;
11263;SDS011;5689;48.798;9.070;2022-08-07T06:58:18;0.00;;;0.00;;
11263;SDS011;5689;48.798;9.070;2022-08-07T07:00:53;0.00;;;0.00;;
11263;SDS011;5689;48.798;9.070;2022-08-07T07:03:22;0.00;;;0.00;;
11263;SDS011;5689;48.798;9.070;2022-08-07T07:05:52;0.00;;;0.00;;
11263;SDS011;5689;48.798;9.070;2022-08-07T07:08:23;0.00;;;0.00;;
11263;SDS011;5689;48.798;9.070;2022-08-07T07:10:52;0.00;;;0.00;;
11263;SDS011;5689;48.798;9.070;2022-08-07T07:13:22;0.10;;;0.10;;
11263;SDS011;5689;48.798;9.070;2022-08-07T07:15:56;0.10;;;0.10;;
11263;SDS011;5689;48.798;9.070;2022-08-07T07:18:29;0.10;;;0.10;;
11263;SDS011;5689;48.798;9.070;2022-08-07T07:21:02;0.00;;;0.00;;
11263;SDS011;5689;48.798;9.070;2022-08-07T07:23:34;0.00;;;0.00;;
11263;SDS011;5689;48.798;9.070;2022-08-07T07:26:03;0.10;;;0.10;;
11263;SDS011;5689;48.798;9.070;2022-08-07T07:28:35;0.00;;;0.00;;
11263;SDS011;5689;48.798;9.070;2022-08-07T07:31:06;0.00;;;0.00;;
11263;SDS011;5689;48.798;9.070;2022-08-07T07:33:38;0.00;;;0.00;;
11263;SDS011;5689;48.798;9.070;2022-08-07T07:36:10;0.00;;;0.00;;
11263;SDS011;5689;48.798;9.070;2022-08-07T07:38:39;0.00;;;0.00;;
11263;SDS011;5689;48.798;9.070;2022-08-07T07:41:08;0.00;;;0.00;;
11263;SDS011;5689;48.798;9.070;2022-08-07T07:43:40;0.00;;;0.00;;
11263;SDS011;5689;48.798;9.070;2022-08-07T07:46:09;0.00;;;0.00;;
11263;SDS011;5689;48.798;9.070;2022-08-07T07:48:39;0.10;;;0.10;;
11263;SDS011;5689;48.798;9.070;2022-08-07T07:51:08;0.10;;;0.10;;
11263;SDS011;5689;48.798;9.070;2022-08-07T07:53:40;0.10;;;0.10;;
11263;SDS011;5689;48.798;9.070;2022-08-07T07:56:11;0.10;;;0.10;;
11263;SDS011;5689;48.798;9.070;2022-08-07T07:58:41;0.00;;;0.00;;
11263;SDS011;5689;48.798;9.070;2022-08-07T08:01:10;0.00;;;0.00;;
11263;SDS011;5689;48.798;9.070;2022-08-07T08:03:40;0.00;;;0.00;;
11263;SDS011;5689;48.798;9.070;2022-08-07T08:06:11;0.00;;;0.00;;
11263;SDS011;5689;48.798;9.070;2022-08-07T08:08:40;0.00;;;0.00;;
11263;SDS011;5689;48.798;9.070;2022-08-07T08:11:10;0.00;;;0.00;;
11263;SDS011;5689;48.798;9.070;2022-08-07T08:13:41;0.00;;;0.00;;
11263;SDS011;5689;48.798;9.070;2022-08-07T08:16:11;0.00;;;0.00;;
11263;SDS011;5689;48.798;9.070;2022-08-07T08:18:42;0.00;;;0.00;;
11263;SDS011;5689;48.798;9.070;2022-08-07T08:21:14;0.00;;;0.00;;
11263;SDS011;5689;48.798;9.070;2022-08-07T08:23:57;0.00;;;0.00;;
11263;SDS011;5689;48.798;9.070;2022-08-07T08:26:44;0.00;;;0.00;;
11263;SDS011;5689;48.798;9.070;2022-08-07T08:29:29;0.00;;;0.00;;
11263;SDS011;5689;48.798;9.070;2022-08-07T08:32:01;0.00;;;0.00;;
11263;SDS011;5689;48.798;9.070;2022-08-07T08:34:32;0.00;;;0.00;;
11263;SDS011;5689;48.798;9.070;2022-08-07T08:37:03;0.00;;;0.00;;
11263;SDS011;5689;48.798;9.070;2022-08-07T08:39:33;0.00;;;0.00;;
11263;SDS011;5689;48.798;9.070;2022-08-07T08:42:02;0.00;;;0.00;;
11263;SDS011;5689;48.798;9.070;2022-08-07T08:44:34;0.00;;;0.00;;
11263;SDS011;5689;48.798;9.070;2022-08-07T08:47:10;0.00;;;0.00;;
11263;SDS011;5689;48.798;9.070;2022-08-07T08:49:46;0.00;;;0.00;;
11263;SDS011;5689;48.798;9.070;2022-08-07T08:52:23;0.00;;;0.00;;
11263;SDS011;5689;48.798;9.070;2022-08-07T08:54:55;0.00;;;0.00;;
11263;SDS011;5689;48.798;9.070;2022-08-07T08:57:31;0.00;;;0.00;;
11263;SDS011;5689;48.798;9.070;2022-08-07T09:00:04;0.10;;;0.10;;
11263;SDS011;5689;48.798;9.070;2022-08-07T09:02:37;0.10;;;0.10;;
11263;SDS011;5689;48.798;9.070;2022-08-07T09:05:19;0.00;;;0.00;;
11263;SDS011;5689;48.798;9.070;2022-08-07T09:07:58;0.00;;;0.00;;
11263;SDS011;5689;48.798;9.070;2022-08-07T09:10:41;0.00;;;0.00;;
11263;SDS011;5689;48.798;9.070;2022-08-07T09:13:16;0.00;;;0.00;;
11263;SDS011;5689;48.798;9.070;2022-08-07T09:15:57;0.00;;;0.00;;
11263;SDS011;5689;48.798;9.070;2022-08-07T09:18:32;0.00;;;0.00;;
11263;SDS011;5689;48.798;9.070;2022-08-07T09:21:17;0.08;;;0.08;;
11263;SDS011;5689;48.798;9.070;2022-08-07T09:23:58;0.00;;;0.00;;
11263;SDS011;5689;48.798;9.070;2022-08-07T09:26:38;0.00;;;0.00;;
11263;SDS011;5689;48.798;9.070;2022-08-07T09:29:16;0.00;;;0.00;;
11263;SDS011;5689;48.798;9.070;2022-08-07T09:31:53;0.00;;;0.00;;
11263;SDS011;5689;48.798;9.070;2022-08-07T09:34:26;0.00;;;0.00;;
11263;SDS011;5689;48.798;9.070;2022-08-07T09:37:03;0.03;;;0.03;;
11263;SDS011;5689;48.798;9.070;2022-08-07T09:39:41;0.00;;;0.00;;
11263;SDS011;5689;48.798;9.070;2022-08-07T09:42:20;0.00;;;0.00;;
11263;SDS011;5689;48.798;9.070;2022-08-07T09:45:02;0.00;;;0.00;;
11263;SDS011;5689;48.798;9.070;2022-08-07T09:47:38;0.10;;;0.10;;
11263;SDS011;5689;48.798;9.070;2022-08-07T09:50:20;0.00;;;0.00;;
11263;SDS011;5689;48.798;9.070;2022-08-07T09:52:56;0.00;;;0.00;;
11263;SDS011;5689;48.798;9.070;2022-08-07T09:55:31;0.00;;;0.00;;
11263;SDS011;5689;48.798;9.070;2022-08-07T10:01:16;0.00;;;0.00;;
11263;SDS011;5689;48.798;9.070;2022-08-07T10:04:05;0.00;;;0.00;;
11263;SDS011;5689;48.798;9.070;2022-08-07T10:09:56;0.00;;;0.00;;
11263;SDS011;5689;48.798;9.070;2022-08-07T10:12:39;0.00;;;0.00;;
11263;SDS011;5689;48.798;9.070;2022-08-07T10:15:31;0.03;;;0.03;;
11263;SDS011;5689;48.798;9.070;2022-08-07T10:18:07;0.00;;;0.00;;
11263;SDS011;5689;48.798;9.070;2022-08-07T10:20:50;0.00;;;0.00;;
11263;SDS011;5689;48.798;9.070;2022-08-07T10:26:35;0.05;;;0.05;;
11263;SDS011;5689;48.798;9.070;2022-08-07T10:29:24;0.00;;;0.00;;
11263;SDS011;5689;48.798;9.070;2022-08-07T10:32:23;0.00;;;0.00;;
11263;SDS011;5689;48.798;9.070;2022-08-07T10:35:04;0.00;;;0.00;;
11263;SDS011;5689;48.798;9.070;2022-08-07T10:37:42;0.00;;;0.00;;
11263;SDS011;5689;48.798;9.070;2022-08-07T10:40:24;0.00;;;0.00;;
11263;SDS011;5689;48.798;9.070;2022-08-07T10:42:59;0.00;;;0.00;;
11263;SDS011;5689;48.798;9.070;2022-08-07T10:45:34;0.00;;;0.00;;
11263;SDS011;5689;48.798;9.070;2022-08-07T10:48:12;0.00;;;0.00;;
11263;SDS011;5689;48.798;9.070;2022-08-07T10:50:51;0.00;;;0.00;;
11263;SDS011;5689;48.798;9.070;2022-08-07T10:53:24;0.00;;;0.00;;
11263;SDS011;5689;48.798;9.070;2022-08-07T10:55:59;0.00;;;0.00;;
11263;SDS011;5689;48.798;9.070;2022-08-07T10:58:38;0.00;;;0.00;;
11263;SDS011;5689;48.798;9.070;2022-08-07T11:01:20;0.00;;;0.00;;
11263;SDS011;5689;48.798;9.070;2022-08-07T11:03:59;0.00;;;0.00;;
11263;SDS011;5689;48.798;9.070;2022-08-07T11:06:39;0.00;;;0.00;;
11263;SDS011;5689;48.798;9.070;2022-08-07T11:09:16;0.00;;;0.00;;
11263;SDS011;5689;48.798;9.070;2022-08-07T11:11:50;0.00;;;0.00;;
11263;SDS011;5689;48.798;9.070;2022-08-07T11:14:30;0.00;;;0.00;;
11263;SDS011;5689;48.798;9.070;2022-08-07T11:17:05;0.00;;;0.00;;
11263;SDS011;5689;48.798;9.070;2022-08-07T11:19:39;0.00;;;0.00;;
11263;SDS011;5689;48.798;9.070;2022-08-07T11:22:16;0.00;;;0.00;;
11263;SDS011;5689;48.798;9.070;2022-08-07T11:24:52;0.00;;;0.00;;
11263;SDS011;5689;48.798;9.070;2022-08-07T11:27:26;0.00;;;0.00;;
11263;SDS011;5689;48.798;9.070;2022-08-07T11:30:00;0.00;;;0.00;;
11263;SDS011;5689;48.798;9.070;2022-08-07T11:32:36;0.00;;;0.00;;
11263;SDS011;5689;48.798;9.070;2022-08-07T11:35:10;0.00;;;0.00;;
11263;SDS011;5689;48.798;9.070;2022-08-07T11:37:58;0.00;;;0.00;;
11263;SDS011;5689;48.798;9.070;2022-08-07T11:40:45;0.00;;;0.00;;
11263;SDS011;5689;48.798;9.070;2022-08-07T11:43:19;0.00;;;0.00;;
11263;SDS011;5689;48.798;9.070;2022-08-07T11:45:52;0.00;;;0.00;;
11263;SDS011;5689;48.798;9.070;2022-08-07T11:48:45;0.00;;;0.00;;
11263;SDS011;5689;48.798;9.070;2022-08-07T11:51:45;0.00;;;0.00;;
11263;SDS011;5689;48.798;9.070;2022-08-07T11:54:32;0.00;;;0.00;;
11263;SDS011;5689;48.798;9.070;2022-08-07T11:57:15;0.00;;;0.00;;
11263;SDS011;5689;48.798;9.070;2022-08-07T12:02:54;0.00;;;0.00;;
11263;SDS011;5689;48.798;9.070;2022-08-07T12:05:44;0.00;;;0.00;;
11263;SDS011;5689;48.798;9.070;2022-08-07T12:08:25;0.00;;;0.00;;
11263;SDS011;5689;48.798;9.070;2022-08-07T12:10:58;0.00;;;0.00;;
11263;SDS011;5689;48.798;9.070;2022-08-07T12:13:34;0.00;;;0.00;;
11263;SDS011;5689;48.798;9.070;2022-08-07T12:16:10;0.00;;;0.00;;
11263;SDS011;5689;48.798;9.070;2022-08-07T12:18:44;0.00;;;0.00;;
11263;SDS011;5689;48.798;9.070;2022-08-07T12:21:23;0.00;;;0.00;;
11263;SDS011;5689;48.798;9.070;2022-08-07T12:24:02;0.00;;;0.00;;
11263;SDS011;5689;48.798;9.070;2022-08-07T12:26:34;0.00;;;0.00;;
11263;SDS011;5689;48.798;9.070;2022-08-07T12:29:08;0.00;;;0.00;;
11263;SDS011;5689;48.798;9.070;2022-08-07T12:31:43;0.00;;;0.00;;
11263;SDS011;5689;48.798;9.070;2022-08-07T12:34:18;0.00;;;0.00;;
11263;SDS011;5689;48.798;9.070;2022-08-07T12:36:49;0.00;;;0.00;;
11263;SDS011;5689;48.798;9.070;2022-08-07T12:39:19;0.00;;;0.00;;
11263;SDS011;5689;48.798;9.070;2022-08-07T12:41:49;0.00;;;0.00;;
11263;SDS011;5689;48.798;9.070;2022-08-07T12:44:19;0.00;;;0.00;;
11263;SDS011;5689;48.798;9.070;2022-08-07T12:46:59;0.00;;;0.00;;
11263;SDS011;5689;48.798;9.070;2022-08-07T12:49:36;0.00;;;0.00;;
11263;SDS011;5689;48.798;9.070;2022-08-07T12:52:11;0.00;;;0.00;;
11263;SDS011;5689;48.798;9.070;2022-08-07T12:54:42;0.00;;;0.00;;
11263;SDS011;5689;48.798;9.070;2022-08-07T12:57:17;0.00;;;0.00;;
11263;SDS011;5689;48.798;9.070;2022-08-07T12:59:51;0.00;;;0.00;;
11263;SDS011;5689;48.798;9.070;2022-08-07T13:02:28;0.00;;;0.00;;
11263;SDS011;5689;48.798;9.070;2022-08-07T13:05:12;0.00;;;0.00;;
11263;SDS011;5689;48.798;9.070;2022-08-07T13:08:01;0.00;;;0.00;;
11263;SDS011;5689;48.798;9.070;2022-08-07T13:10:45;0.00;;;0.00;;
11263;SDS011;5689;48.798;9.070;2022-08-07T13:13:35;0.00;;;0.00;;
11263;SDS011;5689;48.798;9.070;2022-08-07T13:16:14;0.00;;;0.00;;
11263;SDS011;5689;48.798;9.070;2022-08-07T13:18:55;0.00;;;0.00;;
11263;SDS011;5689;48.798;9.070;2022-08-07T13:21:32;0.00;;;0.00;;
11263;SDS011;5689;48.798;9.070;2022-08-07T13:24:07;0.00;;;0.00;;
11263;SDS011;5689;48.798;9.070;2022-08-07T13:26:45;0.00;;;0.00;;
11263;SDS011;5689;48.798;9.070;2022-08-07T13:29:22;0.00;;;0.00;;
11263;SDS011;5689;48.798;9.070;2022-08-07T13:31:54;0.00;;;0.00;;
11263;SDS011;5689;48.798;9.070;2022-08-07T13:34:34;0.00;;;0.00;;
11263;SDS011;5689;48.798;9.070;2022-08-07T13:37:08;0.00;;;0.00;;
11263;SDS011;5689;48.798;9.070;2022-08-07T13:39:44;0.00;;;0.00;;
11263;SDS011;5689;48.798;9.070;2022-08-07T13:42:19;0.00;;;0.00;;
11263;SDS011;5689;48.798;9.070;2022-08-07T13:44:51;0.00;;;0.00;;
11263;SDS011;5689;48.798;9.070;2022-08-07T13:47:20;0.00;;;0.00;;
11263;SDS011;5689;48.798;9.070;2022-08-07T13:49:54;0.00;;;0.00;;
11263;SDS011;5689;48.798;9.070;2022-08-07T13:52:26;0.00;;;0.00;;
11263;SDS011;5689;48.798;9.070;2022-08-07T13:55:04;0.00;;;0.00;;
11263;SDS011;5689;48.798;9.070;2022-08-07T13:57:35;0.00;;;0.00;;
11263;SDS011;5689;48.798;9.070;2022-08-07T14:00:06;0.00;;;0.00;;
11263;SDS011;5689;48.798;9.070;2022-08-07T14:02:38;0.00;;;0.00;;
11263;SDS011;5689;48.798;9.070;2022-08-07T14:05:08;0.00;;;0.00;;
11263;SDS011;5689;48.798;9.070;2022-08-07T14:07:41;0.00;;;0.00;;
11263;SDS011;5689;48.798;9.070;2022-08-07T14:10:13;0.00;;;0.00;;
11263;SDS011;5689;48.798;9.070;2022-08-07T14:12:45;0.00;;;0.00;;
11263;SDS011;5689;48.798;9.070;2022-08-07T14:15:19;0.00;;;0.00;;
11263;SDS011;5689;48.798;9.070;2022-08-07T14:17:56;0.00;;;0.00;;
11263;SDS011;5689;48.798;9.070;2022-08-07T14:20:30;0.00;;;0.00;;
11263;SDS011;5689;48.798;9.070;2022-08-07T14:23:03;0.00;;;0.00;;
11263;SDS011;5689;48.798;9.070;2022-08-07T14:25:36;0.00;;;0.00;;
11263;SDS011;5689;48.798;9.070;2022-08-07T14:28:07;0.00;;;0.00;;
11263;SDS011;5689;48.798;9.070;2022-08-07T14:30:38;0.00;;;0.00;;
11263;SDS011;5689;48.798;9.070;2022-08-07T14:33:12;0.00;;;0.00;;
11263;SDS011;5689;48.798;9.070;2022-08-07T14:35:42;0.00;;;0.00;;
11263;SDS011;5689;48.798;9.070;2022-08-07T14:38:13;0.00;;;0.00;;
11263;SDS011;5689;48.798;9.070;2022-08-07T14:40:43;0.00;;;0.00;;
11263;SDS011;5689;48.798;9.070;2022-08-07T14:43:12;0.00;;;0.00;;
11263;SDS011;5689;48.798;9.070;2022-08-07T14:45:43;0.00;;;0.00;;
11263;SDS011;5689;48.798;9.070;2022-08-07T14:48:14;0.00;;;0.00;;
11263;SDS011;5689;48.798;9.070;2022-08-07T14:50:44;0.00;;;0.00;;
11263;SDS011;5689;48.798;9.070;2022-08-07T14:53:15;0.00;;;0.00;;
11263;SDS011;5689;48.798;9.070;2022-08-07T14:55:45;0.00;;;0.00;;
11263;SDS011;5689;48.798;9.070;2022-08-07T14:58:14;0.00;;;0.00;;
11263;SDS011;5689;48.798;9.070;2022-08-07T15:00:48;0.00;;;0.00;;
11263;SDS011;5689;48.798;9.070;2022-08-07T15:03:20;0.00;;;0.00;;
11263;SDS011;5689;48.798;9.070;2022-08-07T15:05:51;0.00;;;0.00;;
11263;SDS011;5689;48.798;9.070;2022-08-07T15:08:21;0.00;;;0.00;;
11263;SDS011;5689;48.798;9.070;2022-08-07T15:10:56;0.00;;;0.00;;
11263;SDS011;5689;48.798;9.070;2022-08-07T15:13:28;0.00;;;0.00;;
11263;SDS011;5689;48.798;9.070;2022-08-07T15:16:01;0.00;;;0.00;;
11263;SDS011;5689;48.798;9.070;2022-08-07T15:18:34;0.00;;;0.00;;
11263;SDS011;5689;48.798;9.070;2022-08-07T15:21:05;0.00;;;0.00;;
11263;SDS011;5689;48.798;9.070;2022-08-07T15:23:37;0.00;;;0.00;;
11263;SDS011;5689;48.798;9.070;2022-08-07T15:26:09;0.00;;;0.00;;
11263;SDS011;5689;48.798;9.070;2022-08-07T15:28:38;0.00;;;0.00;;
11263;SDS011;5689;48.798;9.070;2022-08-07T15:31:13;0.00;;;0.00;;
11263;SDS011;5689;48.798;9.070;2022-08-07T15:33:42;0.00;;;0.00;;
11263;SDS011;5689;48.798;9.070;2022-08-07T15:36:12;0.00;;;0.00;;
11263;SDS011;5689;48.798;9.070;2022-08-07T15:38:41;0.00;;;0.00;;
11263;SDS011;5689;48.798;9.070;2022-08-07T15:41:12;0.00;;;0.00;;
11263;SDS011;5689;48.798;9.070;2022-08-07T15:43:44;0.00;;;0.00;;
11263;SDS011;5689;48.798;9.070;2022-08-07T15:46:25;0.00;;;0.00;;